createdAt,value
2018-03-31T00:00:16.854Z,58.6
2018-03-31T00:01:16.868Z,58.5
2018-03-31T00:02:17.128Z,58.0
2018-03-31T00:03:16.402Z,58.2
2018-03-31T00:04:16.694Z,58.0
2018-03-31T00:05:16.959Z,57.6
2018-03-31T00:06:17.212Z,57.8
2018-03-31T00:07:16.467Z,57.7
2018-03-31T00:08:16.730Z,57.3
2018-03-31T00:09:16.990Z,57.1
2018-03-31T00:10:16.265Z,57.0
2018-03-31T00:11:16.301Z,56.9
2018-03-31T00:12:16.564Z,57.1
2018-03-31T00:13:16.832Z,57.1
2018-03-31T00:14:17.101Z,57.0
2018-03-31T00:15:16.367Z,57.2
2018-03-31T00:16:16.623Z,57.2
2018-03-31T00:17:16.889Z,57.4
2018-03-31T00:18:17.153Z,58.0
2018-03-31T00:19:16.414Z,58.0
2018-03-31T00:20:16.688Z,58.1
2018-03-31T00:21:16.729Z,58.8
2018-03-31T00:22:16.980Z,59.4
2018-03-31T00:23:17.238Z,59.8
2018-03-31T00:24:16.501Z,60.3
2018-03-31T00:25:16.769Z,60.5
2018-03-31T00:26:17.029Z,60.7
2018-03-31T00:27:16.287Z,61.2
2018-03-31T00:28:16.551Z,61.4
2018-03-31T00:29:16.821Z,61.7
2018-03-31T00:30:17.093Z,62.4
2018-03-31T00:31:17.162Z,62.6
2018-03-31T00:32:16.424Z,63.2
2018-03-31T00:33:16.683Z,63.4
2018-03-31T00:34:16.945Z,64.0
2018-03-31T00:35:17.217Z,64.1
2018-03-31T00:36:16.480Z,64.2
2018-03-31T00:37:16.752Z,64.7
2018-03-31T00:38:17.013Z,64.6
2018-03-31T00:39:16.272Z,65.2
2018-03-31T00:40:16.551Z,65.7
2018-03-31T00:41:16.591Z,65.8
2018-03-31T00:42:16.853Z,66.6
2018-03-31T00:43:17.116Z,67.2
2018-03-31T00:44:16.371Z,67.3
2018-03-31T00:45:16.638Z,68.2
2018-03-31T00:46:16.894Z,68.8
2018-03-31T00:47:17.157Z,69.0
2018-03-31T00:48:16.433Z,69.4
2018-03-31T00:49:16.692Z,70.3
2018-03-31T00:50:16.967Z,70.5
2018-03-31T00:51:17.020Z,70.8
2018-03-31T00:52:16.274Z,71.6
2018-03-31T00:53:16.540Z,72.5
2018-03-31T00:54:16.815Z,72.7
2018-03-31T00:55:17.078Z,73.3
2018-03-31T00:56:16.348Z,73.5
2018-03-31T00:57:16.609Z,74.2
2018-03-31T00:58:16.882Z,74.3
2018-03-31T00:59:17.156Z,74.4
2018-03-31T01:00:16.434Z,75.0
2018-03-31T01:01:16.462Z,75.0
2018-03-31T01:02:16.714Z,75.2
2018-03-31T01:03:16.974Z,75.2
2018-03-31T01:04:17.236Z,75.8
2018-03-31T01:05:16.502Z,75.8
2018-03-31T01:06:16.785Z,75.8
2018-03-31T01:07:17.065Z,75.8
2018-03-31T01:08:16.328Z,76.5
2018-03-31T01:09:16.615Z,76.5
2018-03-31T01:10:16.878Z,76.7
2018-03-31T01:11:16.919Z,77.3
2018-03-31T01:12:17.177Z,77.3
2018-03-31T01:13:16.438Z,77.4
2018-03-31T01:14:16.705Z,77.6
2018-03-31T01:15:16.983Z,78.2
2018-03-31T01:16:17.243Z,78.3
2018-03-31T01:17:16.510Z,78.7
2018-03-31T01:18:16.777Z,79.3
2018-03-31T01:19:17.060Z,79.5
2018-03-31T01:20:16.325Z,79.5
2018-03-31T01:21:16.368Z,80.0
2018-03-31T01:22:16.633Z,80.2
2018-03-31T01:23:16.900Z,80.4
2018-03-31T01:24:17.460Z,81.0
2018-03-31T01:25:16.733Z,81.1
2018-03-31T01:26:16.994Z,81.2
2018-03-31T01:27:16.250Z,81.3
2018-03-31T01:28:16.516Z,82.1
2018-03-31T01:29:16.766Z,82.2
2018-03-31T01:30:17.040Z,82.3
2018-03-31T01:31:17.079Z,82.8
2018-03-31T01:32:16.347Z,82.8
2018-03-31T01:33:16.602Z,83.0
2018-03-31T01:34:16.857Z,83.6
2018-03-31T01:35:17.121Z,83.5
2018-03-31T01:36:16.389Z,83.6
2018-03-31T01:37:16.648Z,83.7
2018-03-31T01:38:16.931Z,83.8
2018-03-31T01:39:17.308Z,84.2
2018-03-31T01:40:16.583Z,84.1
2018-03-31T01:41:16.600Z,84.1
2018-03-31T01:42:16.855Z,84.2
2018-03-31T01:43:17.111Z,84.2
2018-03-31T01:44:16.371Z,84.8
2018-03-31T01:45:16.681Z,84.8
2018-03-31T01:46:16.948Z,84.8
2018-03-31T01:47:17.208Z,84.8
2018-03-31T01:48:16.465Z,85.2
2018-03-31T01:49:16.727Z,85.0
2018-03-31T01:50:17.002Z,85.2
2018-03-31T01:51:17.040Z,85.2
2018-03-31T01:52:16.296Z,85.2
2018-03-31T01:53:16.561Z,85.3
2018-03-31T01:54:16.827Z,85.5
2018-03-31T01:55:17.080Z,85.4
2018-03-31T01:56:16.348Z,86.0
2018-03-31T01:57:16.612Z,86.0
2018-03-31T01:58:16.880Z,86.0
2018-03-31T01:59:17.485Z,86.0
2018-03-31T02:00:16.775Z,85.9
2018-03-31T02:01:16.803Z,85.7
2018-03-31T02:02:17.070Z,85.8
2018-03-31T02:03:16.336Z,85.7
2018-03-31T02:04:16.860Z,85.6
2018-03-31T02:05:17.123Z,85.7
2018-03-31T02:06:16.384Z,85.5
2018-03-31T02:07:16.645Z,85.5
2018-03-31T02:08:16.914Z,85.5
2018-03-31T02:09:17.191Z,85.3
2018-03-31T02:10:16.462Z,85.4
2018-03-31T02:11:16.515Z,85.5
2018-03-31T02:12:16.780Z,85.3
2018-03-31T02:13:17.042Z,85.3
2018-03-31T02:14:16.309Z,85.4
2018-03-31T02:15:16.587Z,85.4
2018-03-31T02:16:16.846Z,85.4
2018-03-31T02:17:17.220Z,85.3
2018-03-31T02:18:16.485Z,85.5
2018-03-31T02:19:16.754Z,85.4
2018-03-31T02:20:17.021Z,85.5
2018-03-31T02:21:17.067Z,85.3
2018-03-31T02:22:16.333Z,85.4
2018-03-31T02:23:16.588Z,85.3
2018-03-31T02:24:16.904Z,85.2
2018-03-31T02:25:17.179Z,85.2
2018-03-31T02:26:16.452Z,85.5
2018-03-31T02:27:16.718Z,85.4
2018-03-31T02:28:16.982Z,85.5
2018-03-31T02:29:17.240Z,85.5
2018-03-31T02:30:17.157Z,85.5
2018-03-31T02:31:17.179Z,85.5
2018-03-31T02:32:16.448Z,85.5
2018-03-31T02:33:16.721Z,85.6
2018-03-31T02:34:16.990Z,85.6
2018-03-31T02:35:17.253Z,85.6
2018-03-31T02:36:16.517Z,85.5
2018-03-31T02:37:16.803Z,85.6
2018-03-31T02:38:17.066Z,85.5
2018-03-31T02:39:16.341Z,85.5
2018-03-31T02:40:16.604Z,85.7
2018-03-31T02:41:16.627Z,85.7
2018-03-31T02:42:16.896Z,85.7
2018-03-31T02:43:17.168Z,85.8
2018-03-31T02:44:16.441Z,85.8
2018-03-31T02:45:16.771Z,85.8
2018-03-31T02:46:17.042Z,85.8
2018-03-31T02:47:16.300Z,85.8
2018-03-31T02:48:16.563Z,85.8
2018-03-31T02:49:16.844Z,85.8
2018-03-31T02:50:17.130Z,85.6
2018-03-31T02:51:17.148Z,85.7
2018-03-31T02:52:16.463Z,85.8
2018-03-31T02:53:16.728Z,85.8
2018-03-31T02:54:16.984Z,85.9
2018-03-31T02:55:17.254Z,86.5
2018-03-31T02:56:16.513Z,86.5
2018-03-31T02:57:16.782Z,86.3
2018-03-31T02:58:17.054Z,86.3
2018-03-31T02:59:16.320Z,86.5
2018-03-31T03:00:16.603Z,86.5
2018-03-31T03:01:16.638Z,86.4
2018-03-31T03:02:16.899Z,86.4
2018-03-31T03:03:17.186Z,86.3
2018-03-31T03:04:16.455Z,86.5
2018-03-31T03:05:16.738Z,86.5
2018-03-31T03:06:17.009Z,86.5
2018-03-31T03:07:16.293Z,86.5
2018-03-31T03:08:16.565Z,86.5
2018-03-31T03:09:16.844Z,86.4
2018-03-31T03:10:17.122Z,86.5
2018-03-31T03:11:17.160Z,86.5
2018-03-31T03:12:16.433Z,86.5
2018-03-31T03:13:16.703Z,86.5
2018-03-31T03:14:16.963Z,86.5
2018-03-31T03:15:17.225Z,86.5
2018-03-31T03:16:16.480Z,86.5
2018-03-31T03:17:16.740Z,87.1
2018-03-31T03:18:16.995Z,87.1
2018-03-31T03:19:16.251Z,87.2
2018-03-31T03:20:16.515Z,87.2
2018-03-31T03:21:16.557Z,87.2
2018-03-31T03:22:16.815Z,87.2
2018-03-31T03:23:17.081Z,87.2
2018-03-31T03:24:16.339Z,87.3
2018-03-31T03:25:16.612Z,87.4
2018-03-31T03:26:16.872Z,87.3
2018-03-31T03:27:17.136Z,87.4
2018-03-31T03:28:16.397Z,87.3
2018-03-31T03:29:16.660Z,87.3
2018-03-31T03:30:16.939Z,87.4
2018-03-31T03:31:17.225Z,87.3
2018-03-31T03:32:16.491Z,87.3
2018-03-31T03:33:16.750Z,87.8
2018-03-31T03:34:17.007Z,87.9
2018-03-31T03:35:16.265Z,87.8
2018-03-31T03:36:16.528Z,87.9
2018-03-31T03:37:16.786Z,87.9
2018-03-31T03:38:17.046Z,87.6
2018-03-31T03:39:16.321Z,87.6
2018-03-31T03:40:16.583Z,87.7
2018-03-31T03:41:16.637Z,87.8
2018-03-31T03:42:16.897Z,87.9
2018-03-31T03:43:17.160Z,88.0
2018-03-31T03:44:16.431Z,88.0
2018-03-31T03:45:16.701Z,88.0
2018-03-31T03:46:16.957Z,88.1
2018-03-31T03:47:17.213Z,88.2
2018-03-31T03:48:16.464Z,88.8
2018-03-31T03:49:16.719Z,89.0
2018-03-31T03:50:16.984Z,89.2
2018-03-31T03:51:17.020Z,89.2
2018-03-31T03:52:16.279Z,89.3
2018-03-31T03:53:16.537Z,89.3
2018-03-31T03:54:16.805Z,89.4
2018-03-31T03:55:17.064Z,89.7
2018-03-31T03:56:16.328Z,89.7
2018-03-31T03:57:16.596Z,89.7
2018-03-31T03:58:16.865Z,90.2
2018-03-31T03:59:17.127Z,90.2
2018-03-31T04:00:16.401Z,90.3
2018-03-31T04:01:16.452Z,90.5
2018-03-31T04:02:17.130Z,90.5
2018-03-31T04:03:16.388Z,90.5
2018-03-31T04:04:16.654Z,90.6
2018-03-31T04:05:16.916Z,90.6
2018-03-31T04:06:17.172Z,90.6
2018-03-31T04:07:16.429Z,91.0
2018-03-31T04:08:16.695Z,91.0
2018-03-31T04:09:16.963Z,91.0
2018-03-31T04:10:17.236Z,91.1
2018-03-31T04:11:16.268Z,91.2
2018-03-31T04:12:16.534Z,91.2
2018-03-31T04:13:16.802Z,91.2
2018-03-31T04:14:17.059Z,91.2
2018-03-31T04:15:16.328Z,91.2
2018-03-31T04:16:16.588Z,91.2
2018-03-31T04:17:16.848Z,91.3
2018-03-31T04:18:17.127Z,91.8
2018-03-31T04:19:16.394Z,91.8
2018-03-31T04:20:16.682Z,91.8
2018-03-31T04:21:16.703Z,91.8
2018-03-31T04:22:16.961Z,91.9
2018-03-31T04:23:17.236Z,92.0
2018-03-31T04:24:16.504Z,92.0
2018-03-31T04:25:16.766Z,92.0
2018-03-31T04:26:17.261Z,92.0
2018-03-31T04:27:16.516Z,92.0
2018-03-31T04:28:16.783Z,92.0
2018-03-31T04:29:17.054Z,92.0
2018-03-31T04:30:16.317Z,91.9
2018-03-31T04:31:16.362Z,92.0
2018-03-31T04:32:16.621Z,92.0
2018-03-31T04:33:16.883Z,92.0
2018-03-31T04:34:17.143Z,92.7
2018-03-31T04:35:16.406Z,92.6
2018-03-31T04:36:16.678Z,92.7
2018-03-31T04:37:16.936Z,92.6
2018-03-31T04:38:17.200Z,92.6
2018-03-31T04:39:16.470Z,92.7
2018-03-31T04:40:16.736Z,92.6
2018-03-31T04:41:16.768Z,92.7
2018-03-31T04:42:17.037Z,92.7
2018-03-31T04:43:16.297Z,92.7
2018-03-31T04:44:16.612Z,92.7
2018-03-31T04:45:16.874Z,92.6
2018-03-31T04:46:17.154Z,92.7
2018-03-31T04:47:16.426Z,92.7
2018-03-31T04:48:16.693Z,92.8
2018-03-31T04:49:16.962Z,92.8
2018-03-31T04:50:17.236Z,92.8
2018-03-31T04:51:16.269Z,92.8
2018-03-31T04:52:16.722Z,92.8
2018-03-31T04:53:16.994Z,92.8
2018-03-31T04:54:16.262Z,92.8
2018-03-31T04:55:16.525Z,92.8
2018-03-31T04:56:16.779Z,92.8
2018-03-31T04:57:17.064Z,92.7
2018-03-31T04:58:16.386Z,92.7
2018-03-31T04:59:16.708Z,92.5
2018-03-31T05:00:16.989Z,92.5
2018-03-31T05:01:17.015Z,92.5
2018-03-31T05:02:16.277Z,93.1
2018-03-31T05:03:16.536Z,93.1
2018-03-31T05:04:16.805Z,93.2
2018-03-31T05:05:17.068Z,93.0
2018-03-31T05:06:16.333Z,93.0
2018-03-31T05:07:16.605Z,92.9
2018-03-31T05:08:16.872Z,92.9
2018-03-31T05:09:17.130Z,92.9
2018-03-31T05:10:16.391Z,93.0
2018-03-31T05:11:16.446Z,93.0
2018-03-31T05:12:16.716Z,93.0
2018-03-31T05:13:16.976Z,93.0
2018-03-31T05:14:17.237Z,92.9
2018-03-31T05:15:16.505Z,93.0
2018-03-31T05:16:16.768Z,93.0
2018-03-31T05:17:17.025Z,93.1
2018-03-31T05:18:16.286Z,93.2
2018-03-31T05:19:16.551Z,93.2
2018-03-31T05:20:16.827Z,93.2
2018-03-31T05:21:16.864Z,93.2
2018-03-31T05:22:17.137Z,93.2
2018-03-31T05:23:16.396Z,93.2
2018-03-31T05:24:16.662Z,93.3
2018-03-31T05:25:16.927Z,93.3
2018-03-31T05:26:17.189Z,93.2
2018-03-31T05:27:16.441Z,93.2
2018-03-31T05:28:16.695Z,93.2
2018-03-31T05:29:16.956Z,93.2
2018-03-31T05:30:17.229Z,93.2
2018-03-31T05:31:16.276Z,93.2
2018-03-31T05:32:16.543Z,93.0
2018-03-31T05:33:16.803Z,92.9
2018-03-31T05:34:17.058Z,92.8
2018-03-31T05:35:16.340Z,92.8
2018-03-31T05:36:16.624Z,92.7
2018-03-31T05:37:16.878Z,92.7
2018-03-31T05:38:17.139Z,92.8
2018-03-31T05:39:16.393Z,92.8
2018-03-31T05:40:16.660Z,92.8
2018-03-31T05:41:16.731Z,92.7
2018-03-31T05:42:17.001Z,92.5
2018-03-31T05:43:16.265Z,92.5
2018-03-31T05:44:16.528Z,92.5
2018-03-31T05:45:16.796Z,92.5
2018-03-31T05:46:17.061Z,92.5
2018-03-31T05:47:16.322Z,92.5
2018-03-31T05:48:16.582Z,92.5
2018-03-31T05:49:16.849Z,92.5
2018-03-31T05:50:17.114Z,92.5
2018-03-31T05:51:17.153Z,92.5
2018-03-31T05:52:16.411Z,92.5
2018-03-31T05:53:16.674Z,92.5
2018-03-31T05:54:16.931Z,92.5
2018-03-31T05:55:17.186Z,92.5
2018-03-31T05:56:16.448Z,92.5
2018-03-31T05:57:16.789Z,92.5
2018-03-31T05:58:17.059Z,92.5
2018-03-31T05:59:16.322Z,92.3
2018-03-31T06:00:16.596Z,92.3
2018-03-31T06:01:16.647Z,92.2
2018-03-31T06:02:16.914Z,92.2
2018-03-31T06:03:17.174Z,92.2
2018-03-31T06:04:16.438Z,92.0
2018-03-31T06:05:16.702Z,92.0
2018-03-31T06:06:16.971Z,91.5
2018-03-31T06:07:17.232Z,91.5
2018-03-31T06:08:16.497Z,91.3
2018-03-31T06:09:16.826Z,91.2
2018-03-31T06:10:17.098Z,91.2
2018-03-31T06:11:17.139Z,91.2
2018-03-31T06:12:16.394Z,91.2
2018-03-31T06:13:16.661Z,91.1
2018-03-31T06:14:16.924Z,91.2
2018-03-31T06:15:17.475Z,91.2
2018-03-31T06:16:16.738Z,91.2
2018-03-31T06:17:17.001Z,91.0
2018-03-31T06:18:16.265Z,91.0
2018-03-31T06:19:16.518Z,91.1
2018-03-31T06:20:16.789Z,91.2
2018-03-31T06:21:16.910Z,91.2
2018-03-31T06:22:17.178Z,91.2
2018-03-31T06:23:16.447Z,90.5
2018-03-31T06:24:16.719Z,90.5
2018-03-31T06:25:16.982Z,90.5
2018-03-31T06:26:17.240Z,90.4
2018-03-31T06:27:16.502Z,90.2
2018-03-31T06:28:16.775Z,90.2
2018-03-31T06:29:17.031Z,90.1
2018-03-31T06:30:16.309Z,90.2
2018-03-31T06:31:16.589Z,90.2
2018-03-31T06:32:16.846Z,90.2
2018-03-31T06:33:17.261Z,90.2
2018-03-31T06:34:16.515Z,90.2
2018-03-31T06:35:16.783Z,90.3
2018-03-31T06:36:17.045Z,89.8
2018-03-31T06:37:16.311Z,89.8
2018-03-31T06:38:16.573Z,89.7
2018-03-31T06:39:16.828Z,89.5
2018-03-31T06:40:17.347Z,89.5
2018-03-31T06:41:17.129Z,89.5
2018-03-31T06:42:16.392Z,89.5
2018-03-31T06:43:16.651Z,89.7
2018-03-31T06:44:16.917Z,89.7
2018-03-31T06:45:17.190Z,89.5
2018-03-31T06:46:16.456Z,89.5
2018-03-31T06:47:16.725Z,88.8
2018-03-31T06:48:16.984Z,88.8
2018-03-31T06:49:17.248Z,88.8
2018-03-31T06:50:16.514Z,88.9
2018-03-31T06:51:16.565Z,88.8
2018-03-31T06:52:16.829Z,88.7
2018-03-31T06:53:17.090Z,88.8
2018-03-31T06:54:16.366Z,88.8
2018-03-31T06:55:16.624Z,88.6
2018-03-31T06:56:16.942Z,88.8
2018-03-31T06:57:17.201Z,88.8
2018-03-31T06:58:16.487Z,88.7
2018-03-31T06:59:16.769Z,88.8
2018-03-31T07:00:17.272Z,88.8
2018-03-31T07:01:17.099Z,88.2
2018-03-31T07:02:16.356Z,88.2
2018-03-31T07:03:16.614Z,88.3
2018-03-31T07:04:16.876Z,88.2
2018-03-31T07:05:17.138Z,88.3
2018-03-31T07:06:16.394Z,88.3
2018-03-31T07:07:16.660Z,88.5
2018-03-31T07:08:16.925Z,88.5
2018-03-31T07:09:17.186Z,88.3
2018-03-31T07:10:16.454Z,88.3
2018-03-31T07:11:16.517Z,88.2
2018-03-31T07:12:16.779Z,88.2
2018-03-31T07:13:17.042Z,88.0
2018-03-31T07:14:16.300Z,88.2
2018-03-31T07:15:16.569Z,88.2
2018-03-31T07:16:16.836Z,88.2
2018-03-31T07:17:17.094Z,88.2
2018-03-31T07:18:16.365Z,88.2
2018-03-31T07:19:16.626Z,88.1
2018-03-31T07:20:16.900Z,88.2
2018-03-31T07:21:16.919Z,87.8
2018-03-31T07:22:17.366Z,87.7
2018-03-31T07:23:16.633Z,87.5
2018-03-31T07:24:16.897Z,87.5
2018-03-31T07:25:17.155Z,87.6
2018-03-31T07:26:16.419Z,87.6
2018-03-31T07:27:16.684Z,87.5
2018-03-31T07:28:16.944Z,87.3
2018-03-31T07:29:17.223Z,87.3
2018-03-31T07:30:16.494Z,87.3
2018-03-31T07:31:16.510Z,87.2
2018-03-31T07:32:16.769Z,87.0
2018-03-31T07:33:17.035Z,86.8
2018-03-31T07:34:16.300Z,86.7
2018-03-31T07:35:16.571Z,86.4
2018-03-31T07:36:16.836Z,86.2
2018-03-31T07:37:17.103Z,85.5
2018-03-31T07:38:16.364Z,85.7
2018-03-31T07:39:16.631Z,85.8
2018-03-31T07:40:16.899Z,85.5
2018-03-31T07:41:16.938Z,85.7
2018-03-31T07:42:17.210Z,85.2
2018-03-31T07:43:16.474Z,84.9
2018-03-31T07:44:16.748Z,85.0
2018-03-31T07:45:17.005Z,84.9
2018-03-31T07:46:16.272Z,84.9
2018-03-31T07:47:16.531Z,84.7
2018-03-31T07:48:16.793Z,84.7
2018-03-31T07:49:17.062Z,84.5
2018-03-31T07:50:16.331Z,84.4
2018-03-31T07:51:16.358Z,84.3
2018-03-31T07:52:16.624Z,84.3
2018-03-31T07:53:16.892Z,83.8
2018-03-31T07:54:17.160Z,84.0
2018-03-31T07:55:16.418Z,83.8
2018-03-31T07:56:16.679Z,83.7
2018-03-31T07:57:16.938Z,83.4
2018-03-31T07:58:17.209Z,83.8
2018-03-31T07:59:16.547Z,83.9
2018-03-31T08:00:16.821Z,83.4
2018-03-31T08:01:16.865Z,83.2
2018-03-31T08:02:17.129Z,83.2
2018-03-31T08:03:16.398Z,83.3
2018-03-31T08:04:16.675Z,83.0
2018-03-31T08:05:16.937Z,83.3
2018-03-31T08:06:17.215Z,83.5
2018-03-31T08:07:16.478Z,83.4
2018-03-31T08:08:16.736Z,83.3
2018-03-31T08:09:16.999Z,83.1
2018-03-31T08:10:16.274Z,82.8
2018-03-31T08:11:16.312Z,83.2
2018-03-31T08:12:16.591Z,83.3
2018-03-31T08:13:16.845Z,82.3
2018-03-31T08:14:17.124Z,82.3
2018-03-31T08:15:16.392Z,82.3
2018-03-31T08:16:16.664Z,82.3
2018-03-31T08:17:16.925Z,82.5
2018-03-31T08:18:17.184Z,82.8
2018-03-31T08:19:16.461Z,82.5
2018-03-31T08:20:16.791Z,82.5
2018-03-31T08:21:16.810Z,82.6
2018-03-31T08:22:17.085Z,82.2
2018-03-31T08:23:16.357Z,82.1
2018-03-31T08:24:16.671Z,82.2
2018-03-31T08:25:16.936Z,82.5
2018-03-31T08:26:17.197Z,82.2
2018-03-31T08:27:16.464Z,82.0
2018-03-31T08:28:16.732Z,82.3
2018-03-31T08:29:16.989Z,82.0
2018-03-31T08:30:16.398Z,81.6
2018-03-31T08:31:16.291Z,81.0
2018-03-31T08:32:16.549Z,80.6
2018-03-31T08:33:16.815Z,80.5
2018-03-31T08:34:17.076Z,79.8
2018-03-31T08:35:16.336Z,80.1
2018-03-31T08:36:16.587Z,79.8
2018-03-31T08:37:16.848Z,79.8
2018-03-31T08:38:17.101Z,79.5
2018-03-31T08:39:16.361Z,79.3
2018-03-31T08:40:16.628Z,79.0
2018-03-31T08:41:16.676Z,78.4
2018-03-31T08:42:16.941Z,78.2
2018-03-31T08:43:17.194Z,78.7
2018-03-31T08:44:16.479Z,78.7
2018-03-31T08:45:16.738Z,78.8
2018-03-31T08:46:17.017Z,78.7
2018-03-31T08:47:16.569Z,78.8
2018-03-31T08:48:16.829Z,78.6
2018-03-31T08:49:17.092Z,78.3
2018-03-31T08:50:16.363Z,77.2
2018-03-31T08:51:16.420Z,77.0
2018-03-31T08:52:16.697Z,76.2
2018-03-31T08:53:16.963Z,76.5
2018-03-31T08:54:17.220Z,76.4
2018-03-31T08:55:16.488Z,75.7
2018-03-31T08:56:16.746Z,76.0
2018-03-31T08:57:16.994Z,75.2
2018-03-31T08:58:16.253Z,74.7
2018-03-31T08:59:16.509Z,73.3
2018-03-31T09:00:16.779Z,73.7
2018-03-31T09:01:16.856Z,73.0
2018-03-31T09:02:17.136Z,72.8
2018-03-31T09:03:16.395Z,73.3
2018-03-31T09:04:16.646Z,73.0
2018-03-31T09:05:16.909Z,73.5
2018-03-31T09:06:17.177Z,72.6
2018-03-31T09:07:16.495Z,72.1
2018-03-31T09:08:16.764Z,72.2
2018-03-31T09:09:17.104Z,72.0
2018-03-31T09:10:16.387Z,71.5
2018-03-31T09:11:16.415Z,71.2
2018-03-31T09:12:16.665Z,71.0
2018-03-31T09:13:16.924Z,71.1
2018-03-31T09:14:17.178Z,71.2
2018-03-31T09:15:16.433Z,70.5
2018-03-31T09:16:16.693Z,71.1
2018-03-31T09:17:16.950Z,71.8
2018-03-31T09:18:17.212Z,71.0
2018-03-31T09:19:16.464Z,71.2
2018-03-31T09:20:16.721Z,71.6
2018-03-31T09:21:16.767Z,71.5
2018-03-31T09:22:17.023Z,71.8
2018-03-31T09:23:16.280Z,71.2
2018-03-31T09:24:16.549Z,72.1
2018-03-31T09:25:16.816Z,71.3
2018-03-31T09:26:17.081Z,71.6
2018-03-31T09:27:16.349Z,71.8
2018-03-31T09:28:16.607Z,71.6
2018-03-31T09:29:16.866Z,71.5
2018-03-31T09:30:17.137Z,70.7
2018-03-31T09:31:17.177Z,70.2
2018-03-31T09:32:16.439Z,70.0
2018-03-31T09:33:16.694Z,69.2
2018-03-31T09:34:16.950Z,68.8
2018-03-31T09:35:17.204Z,68.9
2018-03-31T09:36:16.451Z,68.7
2018-03-31T09:37:16.712Z,68.7
2018-03-31T09:38:16.973Z,69.4
2018-03-31T09:39:17.223Z,69.8
2018-03-31T09:40:16.466Z,70.2
2018-03-31T09:41:16.514Z,69.3
2018-03-31T09:42:16.764Z,69.8
2018-03-31T09:43:17.034Z,70.6
2018-03-31T09:44:16.296Z,71.0
2018-03-31T09:45:16.593Z,71.2
2018-03-31T09:46:16.863Z,70.6
2018-03-31T09:47:17.121Z,70.3
2018-03-31T09:48:16.363Z,70.3
2018-03-31T09:49:16.619Z,70.8
2018-03-31T09:50:16.899Z,70.8
2018-03-31T09:51:16.933Z,70.8
2018-03-31T09:52:17.194Z,70.5
2018-03-31T09:53:16.447Z,71.2
2018-03-31T09:54:16.721Z,70.6
2018-03-31T09:55:17.003Z,70.3
2018-03-31T09:56:16.264Z,70.9
2018-03-31T09:57:16.517Z,70.8
2018-03-31T09:58:16.783Z,71.0
2018-03-31T09:59:17.048Z,70.7
2018-03-31T10:00:16.327Z,71.0
2018-03-31T10:01:16.355Z,70.8
2018-03-31T10:02:16.617Z,70.5
2018-03-31T10:03:16.882Z,69.8
2018-03-31T10:04:17.147Z,70.6
2018-03-31T10:05:16.416Z,71.2
2018-03-31T10:06:16.681Z,71.0
2018-03-31T10:07:16.942Z,71.0
2018-03-31T10:08:17.210Z,70.8
2018-03-31T10:09:16.479Z,70.8
2018-03-31T10:10:16.749Z,71.0
2018-03-31T10:11:16.805Z,70.9
2018-03-31T10:12:17.068Z,70.5
2018-03-31T10:13:16.317Z,70.5
2018-03-31T10:14:16.577Z,70.2
2018-03-31T10:15:16.840Z,70.1
2018-03-31T10:16:17.102Z,70.0
2018-03-31T10:17:16.556Z,69.3
2018-03-31T10:18:16.822Z,69.3
2018-03-31T10:19:17.093Z,69.6
2018-03-31T10:20:16.357Z,69.0
2018-03-31T10:21:16.410Z,69.3
2018-03-31T10:22:16.710Z,68.3
2018-03-31T10:23:16.987Z,67.9
2018-03-31T10:24:17.239Z,67.2
2018-03-31T10:25:16.519Z,66.2
2018-03-31T10:26:16.794Z,66.3
2018-03-31T10:27:17.067Z,65.7
2018-03-31T10:28:16.333Z,65.4
2018-03-31T10:29:16.689Z,65.6
2018-03-31T10:30:16.972Z,65.5
2018-03-31T10:31:17.023Z,65.7
2018-03-31T10:32:16.294Z,65.1
2018-03-31T10:33:16.555Z,64.9
2018-03-31T10:34:16.814Z,64.5
2018-03-31T10:35:17.239Z,64.9
2018-03-31T10:36:16.503Z,65.1
2018-03-31T10:37:16.778Z,65.3
2018-03-31T10:38:17.042Z,65.2
2018-03-31T10:39:16.312Z,65.0
2018-03-31T10:40:16.596Z,64.8
2018-03-31T10:41:16.629Z,64.8
2018-03-31T10:42:16.900Z,64.2
2018-03-31T10:43:17.161Z,64.2
2018-03-31T10:44:16.416Z,64.5
2018-03-31T10:45:16.738Z,64.3
2018-03-31T10:46:17.000Z,64.1
2018-03-31T10:47:16.265Z,64.0
2018-03-31T10:48:16.535Z,62.2
2018-03-31T10:49:16.803Z,61.6
2018-03-31T10:50:17.069Z,61.1
2018-03-31T10:51:17.117Z,61.7
2018-03-31T10:52:16.378Z,61.5
2018-03-31T10:53:16.632Z,60.8
2018-03-31T10:54:16.884Z,60.0
2018-03-31T10:55:17.144Z,59.9
2018-03-31T10:56:16.409Z,60.0
2018-03-31T10:57:16.677Z,60.6
2018-03-31T10:58:16.932Z,60.8
2018-03-31T10:59:17.205Z,60.6
2018-03-31T11:00:16.553Z,60.1
2018-03-31T11:01:16.519Z,61.0
2018-03-31T11:02:16.776Z,61.3
2018-03-31T11:03:17.698Z,61.7
2018-03-31T11:04:16.958Z,62.6
2018-03-31T11:05:17.216Z,63.6
2018-03-31T11:06:16.473Z,63.5
2018-03-31T11:07:16.732Z,62.8
2018-03-31T11:08:16.989Z,62.5
2018-03-31T11:09:16.254Z,61.9
2018-03-31T11:10:16.530Z,62.0
2018-03-31T11:11:16.567Z,61.6
2018-03-31T11:12:16.826Z,62.2
2018-03-31T11:13:17.211Z,62.0
2018-03-31T11:14:16.469Z,61.8
2018-03-31T11:15:16.743Z,61.1
2018-03-31T11:16:16.996Z,60.2
2018-03-31T11:17:16.249Z,60.3
2018-03-31T11:18:16.504Z,60.2
2018-03-31T11:19:16.770Z,60.0
2018-03-31T11:20:17.037Z,59.4
2018-03-31T11:21:17.084Z,59.2
2018-03-31T11:22:16.353Z,59.8
2018-03-31T11:23:16.615Z,59.9
2018-03-31T11:24:16.873Z,60.3
2018-03-31T11:25:17.130Z,60.6
2018-03-31T11:26:16.395Z,60.9
2018-03-31T11:27:16.647Z,60.9
2018-03-31T11:28:16.908Z,60.8
2018-03-31T11:29:17.183Z,60.4
2018-03-31T11:30:16.459Z,60.1
2018-03-31T11:31:16.485Z,60.7
2018-03-31T11:32:16.798Z,60.5
2018-03-31T11:33:17.069Z,60.6
2018-03-31T11:34:16.338Z,60.8
2018-03-31T11:35:16.606Z,60.8
2018-03-31T11:36:16.867Z,60.8
2018-03-31T11:37:17.128Z,59.8
2018-03-31T11:38:16.387Z,59.6
2018-03-31T11:39:16.648Z,59.4
2018-03-31T11:40:16.909Z,58.5
2018-03-31T11:41:16.957Z,58.5
2018-03-31T11:42:17.237Z,58.5
2018-03-31T11:43:16.516Z,58.1
2018-03-31T11:44:16.776Z,58.0
2018-03-31T11:45:17.033Z,57.1
2018-03-31T11:46:16.303Z,57.0
2018-03-31T11:47:16.578Z,57.0
2018-03-31T11:48:16.837Z,56.2
2018-03-31T11:49:17.093Z,56.1
2018-03-31T11:50:16.369Z,56.8
2018-03-31T11:51:16.401Z,56.4
2018-03-31T11:52:16.664Z,56.2
2018-03-31T11:53:16.927Z,55.2
2018-03-31T11:54:17.201Z,54.2
2018-03-31T11:55:16.472Z,54.4
2018-03-31T11:56:16.737Z,54.0
2018-03-31T11:57:17.057Z,54.4
2018-03-31T11:58:16.326Z,53.7
2018-03-31T11:59:16.595Z,53.5
2018-03-31T12:00:16.861Z,53.7
2018-03-31T12:01:16.896Z,53.1
2018-03-31T12:02:17.161Z,53.7
2018-03-31T12:03:16.416Z,52.3
2018-03-31T12:04:16.678Z,51.6
2018-03-31T12:05:16.934Z,51.5
2018-03-31T12:06:17.197Z,52.0
2018-03-31T12:07:16.455Z,50.7
2018-03-31T12:08:16.779Z,50.4
2018-03-31T12:09:17.042Z,51.5
2018-03-31T12:10:16.316Z,48.9
2018-03-31T12:11:16.367Z,49.6
2018-03-31T12:12:16.629Z,49.8
2018-03-31T12:13:16.897Z,49.8
2018-03-31T12:14:17.443Z,49.1
2018-03-31T12:15:16.718Z,49.2
2018-03-31T12:16:16.975Z,49.6
2018-03-31T12:17:17.234Z,49.5
2018-03-31T12:18:16.544Z,49.1
2018-03-31T12:19:16.810Z,48.7
2018-03-31T12:20:17.071Z,48.4
2018-03-31T12:21:17.103Z,49.0
2018-03-31T12:22:16.372Z,49.0
2018-03-31T12:23:16.633Z,49.5
2018-03-31T12:24:16.891Z,48.6
2018-03-31T12:25:17.159Z,48.5
2018-03-31T12:26:16.417Z,48.4
2018-03-31T12:27:16.675Z,49.2
2018-03-31T12:28:16.936Z,49.0
2018-03-31T12:29:17.194Z,49.0
2018-03-31T12:30:16.476Z,49.2
2018-03-31T12:31:16.510Z,49.2
2018-03-31T12:32:16.781Z,49.6
2018-03-31T12:33:17.035Z,49.9
2018-03-31T12:34:16.295Z,49.3
2018-03-31T12:35:16.559Z,49.1
2018-03-31T12:36:16.814Z,49.0
2018-03-31T12:37:17.077Z,49.0
2018-03-31T12:38:16.338Z,48.7
2018-03-31T12:39:16.599Z,48.9
2018-03-31T12:40:16.865Z,48.8
2018-03-31T12:41:16.918Z,49.0
2018-03-31T12:42:17.183Z,49.5
2018-03-31T12:43:16.459Z,49.5
2018-03-31T12:44:16.741Z,49.5
2018-03-31T12:45:17.011Z,48.9
2018-03-31T12:46:16.283Z,47.8
2018-03-31T12:47:16.561Z,48.0
2018-03-31T12:48:16.838Z,48.3
2018-03-31T12:49:17.104Z,48.4
2018-03-31T12:50:16.385Z,48.9
2018-03-31T12:51:16.411Z,49.2
2018-03-31T12:52:16.780Z,49.3
2018-03-31T12:53:17.065Z,49.2
2018-03-31T12:54:16.333Z,49.5
2018-03-31T12:55:16.593Z,49.5
2018-03-31T12:56:17.156Z,49.9
2018-03-31T12:57:16.419Z,50.6
2018-03-31T12:58:16.699Z,51.1
2018-03-31T12:59:16.967Z,51.5
2018-03-31T13:00:17.237Z,51.1
2018-03-31T13:01:16.273Z,51.4
2018-03-31T13:02:16.536Z,51.6
2018-03-31T13:03:16.801Z,51.9
2018-03-31T13:04:17.071Z,52.2
2018-03-31T13:05:16.334Z,52.5
2018-03-31T13:06:16.600Z,52.4
2018-03-31T13:07:16.860Z,52.6
2018-03-31T13:08:17.129Z,53.3
2018-03-31T13:09:16.397Z,53.9
2018-03-31T13:10:16.670Z,54.5
2018-03-31T13:11:16.714Z,55.4
2018-03-31T13:12:16.999Z,56.0
2018-03-31T13:13:16.257Z,56.2
2018-03-31T13:14:16.517Z,56.9
2018-03-31T13:15:16.787Z,56.6
2018-03-31T13:16:17.151Z,56.8
2018-03-31T13:17:16.430Z,56.5
2018-03-31T13:18:16.693Z,56.9